AirNav   Air Wisconsin pilot careers
 
 1001 users online  

5Y4 Lost Creek Airport
Luzerne, Michigan, USA


FAA INFORMATION EFFECTIVE 01 FEBRUARY 2018

Location

FAA Identifier: 5Y4
Lat/Long: 44-39-36.0530N / 084-14-15.0430W
44-39.600883N / 084-14.250717W
44.6600147 / -84.2375119
(estimated)
Elevation: 1051 ft. / 320.3 m (surveyed)
Variation: 06W (1985)
From city: 3 miles NE of LUZERNE, MI
Time zone: UTC -5 (UTC -4 during Daylight Saving Time)
Zip code: 48636

Airport Operations

Airport use: Open to the public
Activation date: 08/1946
Control tower: no
ARTCC: MINNEAPOLIS CENTER
FSS: LANSING FLIGHT SERVICE STATION
NOTAMs facility: LAN (NOTAM-D service available)
Attendance: UNATNDD
Wind indicator: yes
Segmented circle: no

Airport Communications

CTAF: 122.9

Nearby radio navigation aids

VOR radial/distance  VOR name  Freq  Var
CGGr100/(21.0)GRAYLING VOR109.8006W
BXZr001/25.1WEST BRANCH VOR/DME113.2006W
GLRr143/29.0GAYLORD VOR/DME109.2006W
ASPr296/38.2AU SABLE VOR/DME116.1007W
APNr236/38.5ALPENA VORTAC108.8007W

 
NDB name  Hdg/Dist  Freq  Var  ID
GRAYLING108/25.835906WGYG --. -.-- --.

Airport Services

Parking: tiedowns

Runway Information

Runway 18/36

Dimensions: 2600 x 100 ft. / 792 x 30 m
Surface: turf, in good condition
RUNWAY 18  RUNWAY 36
Latitude: 44-39.794667N44-39.366667N
Longitude: 084-14.208333W084-14.208333W
Elevation: 1051.0 ft.1051.0 ft.
Traffic pattern: leftleft
Displaced threshold: 440 ft.715 ft.
Runway end identifier lights: nono
Obstructions: 45 ft. trees, 180 ft. from runway, 4:1 slope to clear
APCH RATIO 14:1 AT DSPLCD THLD.
60 ft. trees, 120 ft. right of centerline
APCH RATIO 20:1 BASED ON STRAIGHT OUT OVR 60 FT TREES, 1220 FT DSTC, 0 FT B.

Runway 5/23

Dimensions: 2200 x 100 ft. / 671 x 30 m
Surface: turf, in good condition
Runway edge markings: RYS 05/23, 18/36, & DSPLCD THLDS MKD WITH 3 FT YELLOW CONES.
RUNWAY 5  RUNWAY 23
Latitude: 44-39.482667N44-39.775000N
Longitude: 084-14.408333W084-14.108333W
Elevation: 1051.0 ft.1051.0 ft.
Traffic pattern: leftleft
Displaced threshold: 200 ft.415 ft.
Runway end identifier lights: nono
Obstructions: 55 ft. trees, 770 ft. from runway, 115 ft. right of centerline, 14:1 slope to clear
APCH RATIO 20:1; FM DSPLCD THLD.
40 ft. trees, 30 ft. from runway, 126 ft. left of centerline
APCH RATIO 12:1 AT DSPLCD THLD OVR 47 FT TREE, 578 FT DSTC, 130 FT L. APCH RATIO 20:1 BASED ON STRAIGHT OUT.

Airport Ownership and Management from official FAA records

Ownership: Publicly-owned
Owner: US DEPT OF AGRICULTURE
107 MCKINLEY RD
MIO, MI 48647
Phone 989-826-3252
Manager: CLIFF OLSON
3605 OAKVILLE WALTZ RD
NEW BOSTON, MI 48164-9669
Phone 734-775-1953

Airport Operational Statistics

Aircraft based on the field: 1
Single engine airplanes: 1
    
Aircraft operations: 150/year *
67% transient general aviation
33% local general aviation
* for 12-month period ending 31 December 2015

Additional Remarks

ARPT CLSD NOV 14-APR 15 AND WHEN SNOW COVERED.
DEER ON & INVOF ARPT.
RC MODEL ACFT OPER S END OF RY 5/23.
RESTAURANT, LODGE, & CAMPING ADJACENT 989-826-9901.
ARPT OPERATES UNDER SPECIAL USE PERMIT TO MDOT-BUREAU OF AERONAUTICS, 517-335-9283.

Instrument Procedures

There are no published instrument procedures at 5Y4.

Some nearby airports with instrument procedures:

KGOV - Grayling Army Airfield (21 nm W)
Y31 - West Branch Community Airport (25 nm S)
KHTL - Roscommon County - Blodgett Memorial Airport (26 nm SW)
KGLR - Gaylord Regional Airport (29 nm NW)
KOSC - Oscoda-Wurtsmith Airport (38 nm E)
 
Loc | Ops | Rwys | IFR | FBO | Links
Com | Nav | Svcs | Stats | Notes

AirNav Hotels Sweepstakes
 
Area around 5Y4 (Lost Creek Airport)
 
Road maps at: MapQuest Bing Google
 
Aerial photo
WARNING: Photo may not be current or correct
Aerial photo of 5Y4 (Lost Creek Airport)
Do you have a better or more recent aerial photo of Lost Creek Airport that you would like to share? If so, please send us your photo.

 
Sectional chart

 
Airport distance calculator
Flying to Lost Creek Airport? Find the distance to fly.

From to 5Y4

Sunrise and sunset
Times for 18-Feb-2018
 Local
(UTC-5)
 Zulu
(UTC)
Morning civil twilight07:0412:04
Sunrise07:3412:34
Sunset18:0823:08
Evening civil twilight18:3823:38

Current date and time
Zulu (UTC)  18-Feb-2018 22:40:40
Local (UTC-5)  18-Feb-2018 17:40:40
 
METAR
KGOV 
21nm W 
182158Z AUTO 17012KT 10SM OVC130 01/M06 A3010 RMK AO2 SLP213 T00091056
KHTL 
26nm SW 
182153Z AUTO 17010G18KT 10SM CLR 01/M05 A3012 RMK AO2 SLP214 T00111050
KGLR 
29nm NW 
182153Z AUTO 19013KT 10SM BKN120 01/M07 A3007 RMK AO2 SLP200 T00061067 $
KAPN 
38nm NE 
182154Z AUTO 18015KT 10SM BKN110 02/M06 A3015 RMK AO2 SLP220 T00171056
KOSC 
38nm E 
182215Z AUTO 19009KT 10SM CLR 01/M05 A3018 RMK AO2 T00061055
TAF
KAPN 
38nm NE 
181720Z 1818/1918 21009KT P6SM BKN035 FM190000 18012G21KT P6SM OVC050 FM190300 18012G21KT P6SM SCT050 BKN100 WS020/19045KT FM191200 20007KT P6SM VCSH OVC030
NOTAMs
Click for the latest NOTAMs
NOTAMs are issued by the DoD/FAA and will open in a separate window not controlled by AirNav.

 

 
 

Would you like to see your business listed on this page?

 If your business provides an interesting product or service to pilots, flight crews, aircraft, or users of the Lost Creek Airport, you should consider listing it here.  To start the listing process, click on the button below
 
Add a business
 

Other Pages about Lost Creek Airport

Page from the Michigan Airport Directory (PDF)
 
Update a link
 
Copyright © AirNav, LLC. All rights reserved. Privacy Policy  Contact